createdAt,value
2023-01-17T00:00:01.902Z,29.20
2023-01-17T00:10:33.801Z,23.30
2023-01-17T00:15:40.866Z,40.80
2023-01-17T00:21:06.226Z,43.00
2023-01-17T00:26:16.848Z,32.40
2023-01-17T00:31:22.963Z,28.80
2023-01-17T00:36:29.059Z,31.20
2023-01-17T00:41:35.036Z,32.80
2023-01-17T00:46:59.853Z,40.30
2023-01-17T00:52:26.314Z,33.10
2023-01-17T00:57:51.125Z,29.70
2023-01-17T01:03:16.301Z,38.20
2023-01-17T01:08:43.608Z,34.20
2023-01-17T01:14:08.627Z,28.30
2023-01-17T01:19:33.403Z,11.90
2023-01-17T01:24:58.619Z,38.10
2023-01-17T01:30:25.239Z,36.70
2023-01-17T01:35:32.893Z,28.40
2023-01-17T01:40:45.278Z,21.70
2023-01-17T01:45:58.316Z,26.10
2023-01-17T01:51:08.735Z,24.20
2023-01-17T01:56:17.202Z,25.60
2023-01-17T02:01:24.565Z,27.20
2023-01-17T02:06:35.159Z,24.90
2023-01-17T02:11:43.253Z,25.40
2023-01-17T02:17:03.577Z,28.30
2023-01-17T02:22:35.406Z,24.60
2023-01-17T02:27:57.871Z,24.00
2023-01-17T02:33:23.987Z,28.00
2023-01-17T02:38:39.542Z,25.70
2023-01-17T02:43:50.203Z,23.50
2023-01-17T02:48:59.296Z,20.70
2023-01-17T02:54:25.767Z,17.80
2023-01-17T02:59:42.331Z,24.80
2023-01-17T03:04:54.164Z,26.10
2023-01-17T03:10:09.445Z,27.00
2023-01-17T03:15:19.227Z,24.60
2023-01-17T03:20:26.935Z,21.20
2023-01-17T03:25:34.008Z,23.90
2023-01-17T03:30:41.261Z,22.00
2023-01-17T03:35:49.594Z,24.50
2023-01-17T03:40:58.792Z,24.30
2023-01-17T03:46:07.950Z,22.60
2023-01-17T03:51:15.373Z,21.70
2023-01-17T03:56:23.092Z,25.90
2023-01-17T04:01:30.432Z,25.70
2023-01-17T04:06:37.693Z,23.40
2023-01-17T04:16:50.347Z,18.30
2023-01-17T04:21:57.667Z,21.10
2023-01-17T04:27:05.293Z,20.40
2023-01-17T04:32:12.567Z,23.70
2023-01-17T04:37:20.302Z,24.80
2023-01-17T04:42:28.120Z,22.10
2023-01-17T04:47:36.155Z,23.10
2023-01-17T04:52:43.408Z,27.10
2023-01-17T05:02:56.432Z,21.20
2023-01-17T05:08:03.688Z,26.80
2023-01-17T05:18:18.187Z,48.40
2023-01-17T05:23:26.136Z,34.60
2023-01-17T05:28:34.354Z,28.20
2023-01-17T05:33:41.752Z,31.20
2023-01-17T05:38:49.182Z,42.70
2023-01-17T05:43:56.702Z,31.70
2023-01-17T05:54:10.641Z,18.10
2023-01-17T05:59:25.614Z,27.80
2023-01-17T06:04:43.884Z,27.30
2023-01-17T06:09:51.127Z,25.40
2023-01-17T06:20:04.454Z,27.50
2023-01-17T06:25:12.677Z,33.10
2023-01-17T06:30:20.498Z,26.70
2023-01-17T06:35:27.535Z,35.60
2023-01-17T06:45:40.814Z,24.40
2023-01-17T07:01:09.565Z,12.40
2023-01-17T07:06:16.883Z,24.90
2023-01-17T07:11:24.608Z,35.20
2023-01-17T07:16:31.787Z,25.10
2023-01-17T07:21:39.268Z,17.30
2023-01-17T07:31:52.842Z,19.70
2023-01-17T07:37:00.282Z,33.40
2023-01-17T07:42:07.829Z,51.10
2023-01-17T07:47:15.171Z,39.20
2023-01-17T07:52:23.113Z,38.20
2023-01-17T07:57:32.796Z,40.90
2023-01-17T08:02:40.852Z,39.00
2023-01-17T08:07:48.043Z,24.10
2023-01-17T08:18:01.028Z,61.80
2023-01-17T08:28:14.064Z,24.00
2023-01-17T08:38:27.570Z,32.40
2023-01-17T08:43:34.795Z,44.70
2023-01-17T08:53:48.850Z,33.10
2023-01-17T08:58:56.573Z,35.50
2023-01-17T09:04:03.730Z,30.50
2023-01-17T09:14:18.701Z,32.00
2023-01-17T09:19:25.898Z,35.40
2023-01-17T09:29:39.077Z,38.30
2023-01-17T09:34:48.011Z,32.50
2023-01-17T09:39:55.212Z,38.80
2023-01-17T09:50:22.651Z,33.20
2023-01-17T09:55:35.533Z,34.70
2023-01-17T10:00:54.727Z,33.30
2023-01-17T10:06:23.978Z,33.10
2023-01-17T10:11:40.597Z,29.80
2023-01-17T10:16:55.667Z,30.20
2023-01-17T10:22:17.965Z,27.90
2023-01-17T10:27:31.764Z,25.90
2023-01-17T10:32:48.232Z,33.90
2023-01-17T10:37:58.394Z,16.70
2023-01-17T10:43:16.888Z,27.30
2023-01-17T10:48:35.171Z,28.60
2023-01-17T10:53:54.840Z,20.80
2023-01-17T11:02:43.363Z,23.50
2023-01-17T11:08:03.172Z,24.10
2023-01-17T11:13:25.458Z,60.80
2023-01-17T11:18:35.940Z,20.10
2023-01-17T11:23:45.284Z,21.40
2023-01-17T11:28:53.404Z,19.50
2023-01-17T11:34:18.524Z,20.00
2023-01-17T11:39:29.009Z,38.80
2023-01-17T11:44:37.260Z,10.70
2023-01-17T11:49:46.482Z,11.90
2023-01-17T11:54:55.731Z,9.40
2023-01-17T12:00:16.740Z,10.10
2023-01-17T12:05:47.411Z,10.70
2023-01-17T12:11:04.365Z,13.90
2023-01-17T12:16:34.168Z,16.00
2023-01-17T12:21:49.777Z,58.10
2023-01-17T12:27:06.399Z,20.40
2023-01-17T12:32:31.930Z,18.70
2023-01-17T12:37:42.218Z,16.00
2023-01-17T12:42:54.881Z,20.30
2023-01-17T12:48:07.113Z,20.50
2023-01-17T12:53:25.476Z,15.90
2023-01-17T12:58:40.115Z,29.30
2023-01-17T13:03:57.735Z,17.70
2023-01-17T13:09:06.989Z,20.30
2023-01-17T13:14:14.155Z,11.20
2023-01-17T13:24:45.812Z,13.40
2023-01-17T13:30:06.000Z,7.80
2023-01-17T13:35:27.679Z,9.80
2023-01-17T13:40:50.849Z,8.30
2023-01-17T13:46:00.689Z,7.80
2023-01-17T13:51:09.508Z,6.00
2023-01-17T13:56:25.336Z,9.20
2023-01-17T14:01:56.368Z,7.80
2023-01-17T14:07:18.592Z,27.90
2023-01-17T14:12:33.898Z,4.50
2023-01-17T14:17:52.384Z,10.10
2023-01-17T14:23:02.997Z,6.50
2023-01-17T14:28:25.022Z,7.70
2023-01-17T14:33:36.912Z,10.10
2023-01-17T14:38:47.027Z,7.40
2023-01-17T14:43:55.300Z,12.10
2023-01-17T14:49:07.694Z,8.80
2023-01-17T14:54:23.036Z,9.50
2023-01-17T14:59:30.417Z,8.90
2023-01-17T15:04:40.077Z,9.80
2023-01-17T15:09:47.705Z,9.10
2023-01-17T15:14:58.865Z,9.20
2023-01-17T15:20:17.334Z,8.30
2023-01-17T15:25:24.919Z,9.00
2023-01-17T15:30:32.448Z,7.70
2023-01-17T15:35:39.548Z,8.40
2023-01-17T15:46:00.400Z,8.90
2023-01-17T15:51:08.316Z,8.50
2023-01-17T15:56:31.051Z,9.40
2023-01-17T16:01:39.024Z,14.40
2023-01-17T16:06:46.905Z,17.00
2023-01-17T16:11:54.195Z,14.20
2023-01-17T16:17:03.002Z,11.90
2023-01-17T16:22:12.643Z,10.80
2023-01-17T16:27:20.230Z,14.90
2023-01-17T16:32:28.360Z,15.10
2023-01-17T16:37:35.630Z,13.50
2023-01-17T16:42:42.812Z,15.20
2023-01-17T16:52:57.470Z,10.20
2023-01-17T17:02:26.293Z,14.90
2023-01-17T17:07:35.515Z,17.30
2023-01-17T17:12:42.695Z,13.50
2023-01-17T17:22:57.573Z,15.70
2023-01-17T17:28:05.104Z,12.50
2023-01-17T17:33:12.700Z,18.90
2023-01-17T17:38:20.330Z,18.30
2023-01-17T17:43:27.934Z,19.30
2023-01-17T17:48:35.425Z,19.40
2023-01-17T17:53:42.636Z,21.30
2023-01-17T18:03:57.595Z,24.80
2023-01-17T18:09:05.321Z,22.20
2023-01-17T18:14:14.942Z,27.30
2023-01-17T18:19:24.173Z,22.10
2023-01-17T18:24:32.007Z,29.90
2023-01-17T18:29:39.414Z,22.00
2023-01-17T18:34:47.891Z,25.30
2023-01-17T18:39:55.634Z,33.60
2023-01-17T18:45:03.149Z,36.30
2023-01-17T18:50:12.340Z,33.20
2023-01-17T18:55:19.828Z,38.30
2023-01-17T19:00:27.823Z,40.30
2023-01-17T19:05:38.463Z,36.00
2023-01-17T19:10:45.822Z,42.30
2023-01-17T19:15:54.469Z,30.00
2023-01-17T19:21:08.635Z,37.40
2023-01-17T19:26:17.398Z,42.50
2023-01-17T19:31:27.299Z,40.80
2023-01-17T19:36:37.649Z,34.70
2023-01-17T19:41:47.127Z,52.50
2023-01-17T19:46:56.870Z,51.10
2023-01-17T19:52:04.133Z,52.10
2023-01-17T20:02:18.091Z,59.90
2023-01-17T20:07:25.385Z,61.00
2023-01-17T20:17:39.027Z,45.40
2023-01-17T20:22:46.674Z,45.40
2023-01-17T20:27:55.187Z,53.00
2023-01-17T20:33:03.543Z,51.10
2023-01-17T20:38:12.161Z,51.40
2023-01-17T20:43:19.459Z,51.10
2023-01-17T20:48:26.738Z,43.10
2023-01-17T20:58:40.140Z,41.60
2023-01-17T21:03:49.445Z,47.70
2023-01-17T21:08:56.888Z,60.60
2023-01-17T21:14:05.877Z,58.30
2023-01-17T21:19:17.382Z,56.10
2023-01-17T21:24:24.821Z,57.00
2023-01-17T21:29:32.759Z,44.00
2023-01-17T21:34:40.357Z,53.50
2023-01-17T21:39:51.667Z,43.40
2023-01-17T21:44:58.907Z,49.80
2023-01-17T21:55:27.040Z,40.10
2023-01-17T22:00:34.285Z,36.50
2023-01-17T22:05:42.003Z,30.70
2023-01-17T22:10:49.373Z,33.50
2023-01-17T22:16:03.210Z,28.40
2023-01-17T22:21:13.248Z,26.00
2023-01-17T22:26:24.433Z,25.30
2023-01-17T22:31:32.080Z,25.80
2023-01-17T22:36:39.579Z,25.30
2023-01-17T22:41:46.799Z,27.70
2023-01-17T22:51:59.734Z,23.50
2023-01-17T22:57:07.879Z,26.70
2023-01-17T23:02:16.580Z,29.20
2023-01-17T23:07:27.351Z,32.20
2023-01-17T23:12:34.989Z,35.90
2023-01-17T23:17:59.900Z,27.20
2023-01-17T23:23:07.281Z,33.70
2023-01-17T23:28:21.081Z,35.60
2023-01-17T23:33:28.312Z,31.50
2023-01-17T23:43:45.433Z,23.40
2023-01-17T23:48:53.245Z,14.10
2023-01-17T23:54:05.654Z,15.60
2023-01-17T23:59:14.112Z,13.70
